Weather observations for the past three days for
Auburn Municipal Airport
Metric (Imperial)
Date Time (pdt) Wind (kph) Vis. (km) Weather Sky Cond. Temperature (ºC) Relative Humidity Wind Chill (°C) Heat Index (°C) Pressure Precipitation (cm)
Air Dwpt 6 hour altimeter (cm) sea level (mb) 1 hr 3 hr 6 hr
Max. Min.
02 11:15 W 13 16.09 Fair CLR 17 12 73% 76.02 0.0
02 10:55 SW 7 16.09 Fair CLR 17 13 77% 76 0.0
02 10:35 W 11 16.09 Fair CLR 17 13 77% 76 0.0
02 10:15 W 13 16.09 Fair CLR 18 14 78% 75.97 0.0
02 09:55 S 6 16.09 Fair CLR 20 12 60% 75.95 0.0
02 09:35 Vrbl 9 16.09 Fair CLR 20 12 60% 75.95 0.0
02 09:15 S 7 16.09 Fair CLR 19 12 64% 75.95 0.0
02 08:55 S 6 16.09 Fair CLR 19 11 60% 75.95 0.0
02 08:35 Calm 16.09 Fair CLR 18 12 68% 75.95 0.0
02 08:15 E 9 16.09 Fair CLR 17 10 64% 75.95 0.0
02 07:55 E 6 16.09 Fair CLR 17 10 64% 75.95 0.0
02 07:35 E 7 16.09 Fair CLR 16 11 72% 75.95 0.0
02 07:15 SE 9 16.09 Fair CLR 15 11 77% 75.95 0.0
02 06:55 S 7 16.09 Fair CLR 14 11 82% 75.92 0.0
02 06:35 SE 9 16.09 Fair CLR 15 10 72% 75.9 0.0
02 06:15 E 11 16.09 Fair CLR 14 11 82% 75.9 0.0
02 05:55 E 9 16.09 Fair CLR 14 11 82% 75.9 0.0
02 05:35 S 7 16.09 Fair CLR 14 11 82% 75.9 0.0
02 05:15 SE 7 16.09 Fair CLR 15 11 77% 75.87 0.0
02 04:55 Calm 16.09 Fair CLR 15 11 77% 75.87 0.0
02 04:35 Calm 16.09 Fair CLR 15 11 77% 75.9 0.0
02 04:15 SE 9 16.09 Fair CLR 16 11 72% 75.9 0.0
02 03:55 SE 6 16.09 Fair CLR 16 11 72% 75.9 0.0
02 03:35 E 11 16.09 Fair CLR 15 12 82% 75.9 0.0
02 03:15 Calm 16.09 Fair CLR 16 12 77% 75.92 0.0
02 02:55 E 7 16.09 Fair CLR 16 12 77% 75.92 0.0
02 02:35 E 9 16.09 Fair CLR 16 12 77% 75.92 0.0
02 02:15 E 13 16.09 Fair CLR 16 13 83% 75.92 0.0
02 01:55 E 9 16.09 Fair CLR 16 13 83% 75.95 0.0
02 01:35 E 11 16.09 Fair CLR 16 13 83% 75.95 0.0
02 01:15 E 13 16.09 Fair CLR 17 13 77% 75.95 0.0
02 00:55 E 15 16.09 Fair CLR 17 14 83% 75.97 0.0
02 00:35 E 13 16.09 Fair CLR 17 14 83% 75.97 0.0
02 00:15 E 11 16.09 Fair CLR 17 14 83% 75.97 0.0
01 23:55 E 13 16.09 Fair CLR 17 14 83% 75.97 0.0
01 23:35 E 7 16.09 Fair CLR 17 14 83% 75.97 0.0
01 23:15 E 9 16.09 Fair CLR 17 14 83% 76 0.0
01 22:55 E 6 16.09 Fair CLR 18 14 78% 76 0.0
01 22:35 SE 6 16.09 Fair CLR 18 14 78% 76 0.0
01 22:15 SE 6 16.09 Fair CLR 19 14 73% 76 0.0
01 21:55 SE 7 16.09 Fair CLR 19 14 73% 76 0.0
01 21:35 S 6 16.09 Fair CLR 20 14 69% 75.97 0.0
01 21:15 SE 7 16.09 Fair CLR 20 14 69% 75.97 0.0
01 20:55 SE 6 16.09 Fair CLR 19 14 73% 75.95 0.0
01 20:35 Calm 16.09 Fair CLR 17 14 83% 75.92 0.0
01 20:15 Calm 16.09 Fair CLR 18 14 78% 75.92 0.0
01 19:55 Calm 16.09 Fair CLR 21 13 60% 75.9 0.0 0.03
01 19:35 SW 7 16.09 Fair CLR 22 13 57% 75.92 0.0
01 19:15 SW 6 16.09 Fair CLR 23 13 53% 75.9 0.0
01 18:35 S 9 16.09 Fair CLR 23 13 53% 75.92 0.0
01 18:15 SW 7 16.09 Fair CLR 24 12 47% 25 75.92 0.0
01 17:55 Vrbl 6 16.09 Fair CLR 24 12 47% 25 75.92 0.0
01 17:35 Vrbl 7 16.09 Fair CLR 24 12 47% 25 75.95 0.0
01 17:15 SW 7 16.09 Fair CLR 24 12 47% 25 75.95 0.0
01 16:55 Vrbl 7 16.09 Fair CLR 24 11 44% 25 75.95 0.0
01 16:35 Vrbl 7 16.09 Fair CLR 24 12 47% 25 75.97 0.0
01 16:15 Vrbl 9 16.09 Fair CLR 25 12 44% 26 75.97 0.0
01 15:55 W 9 16.09 Fair CLR 25 13 47% 26 76 0.0
01 15:35 SW 11 16.09 Fair CLR 24 13 50% 25 76.02 0.0
01 15:15 Vrbl 7 16.09 Fair CLR 24 13 50% 25 76.05 0.0
01 14:55 Vrbl 9 16.09 Fair CLR 24 13 50% 25 76.05 0.0
01 14:35 SW 9 G 24 16.09 Fair CLR 24 12 47% 25 76.07 0.0
01 14:15 Calm 16.09 Fair CLR 24 13 50% 25 76.07 0.0
01 13:55 W 11 16.09 Fair CLR 24 13 50% 25 76.07 0.0
01 13:35 SW 11 14.48 Fair CLR 23 12 50% 76.07 0.0
01 13:15 S 13 16.09 Fair CLR 23 13 53% 76.1 0.0
01 12:55 Vrbl 11 16.09 Fair CLR 23 13 53% 76.1 0.0
01 12:15 SW 11 16.09 Fair CLR 23 14 57% 76.12 0.0
01 11:55 SW 9 16.09 Fair CLR 23 13 53% 76.12 0.0
01 11:35 W 9 16.09 Fair CLR 22 13 57% 76.12 0.0
01 11:15 SW 11 16.09 Fair CLR 22 12 53% 76.12 0.0
01 10:55 Vrbl 7 16.09 Fair CLR 22 12 53% 76.12 0.0
01 10:35 Vrbl 7 16.09 Fair CLR 22 10 47% 76.12 0.0
01 10:15 Vrbl 7 16.09 Fair CLR 22 10 47% 76.12 0.0
01 09:55 Vrbl 6 16.09 Fair CLR 22 10 47% 76.12 0.0
01 09:35 Vrbl 7 16.09 Fair CLR 21 10 50% 76.12 0.0
01 09:15 Calm 16.09 Fair CLR 21 9 46% 76.12 0.0
01 08:55 Calm 16.09 Fair CLR 20 9 49% 76.12 0.0
01 08:35 Calm 16.09 Fair CLR 19 8 49% 76.1 0.0
01 08:15 Calm 16.09 Fair CLR 18 8 52% 76.1 0.0
01 07:55 Calm 16.09 Fair CLR 17 8 56% 76.07 0.0
01 07:35 Calm 16.09 Fair CLR 16 8 59% 76.07 0.0
01 07:15 Calm 16.09 Fair CLR 17 6 49% 76.05 0.0
01 06:55 Calm 16.09 Fair CLR 16 6 52% 76.05 0.0
01 06:35 E 11 16.09 Fair CLR 15 6 55% 76.02 0.0
01 06:15 Calm 16.09 Fair CLR 15 6 55% 76 0.0
01 05:55 E 7 16.09 Fair CLR 15 7 59% 76 0.0
01 05:35 NE 9 16.09 Fair CLR 16 7 55% 76 0.0
01 05:15 E 11 16.09 Fair CLR 15 8 63% 76 0.0
01 04:55 E 9 16.09 Fair CLR 15 8 63% 76 0.0
01 04:35 E 9 16.09 Fair CLR 15 9 68% 76 0.0
01 04:15 E 15 16.09 Fair CLR 15 9 68% 76 0.0
01 03:55 E 9 16.09 Fair CLR 15 9 68% 76 0.0
01 03:35 E 9 16.09 Fair CLR 15 10 72% 76 0.0
01 03:15 E 9 16.09 Fair CLR 14 10 77% 76 0.0
01 02:55 E 11 16.09 Fair CLR 15 10 72% 76 0.0
01 02:35 E 7 16.09 Fair CLR 15 11 77% 76.02 0.0
01 02:15 Calm 16.09 Fair CLR 15 11 77% 76.02 0.0
01 01:55 E 9 16.09 Fair CLR 16 11 72% 76.02 0.0
01 01:35 E 9 16.09 Fair CLR 16 11 72% 76.02 0.0
01 01:15 E 9 16.09 Fair CLR 16 11 72% 76.05 0.0
01 00:55 E 6 16.09 Fair CLR 17 11 68% 76.05 0.0
01 00:35 Calm 16.09 Fair CLR 17 11 68% 76.05 0.0
01 00:15 E 13 16.09 Fair CLR 17 11 68% 76.02 0.0
30 23:55 E 13 16.09 Fair CLR 17 11 68% 76.02 0.0
30 23:35 E 15 16.09 Fair CLR 17 11 68% 76.02 0.0
30 23:15 E 11 16.09 Fair CLR 17 11 68% 76.02 0.0
30 22:55 E 15 16.09 Fair CLR 17 11 68% 76.02 0.0
30 22:35 Calm 16.09 Fair CLR 17 11 68% 76.02 0.0
30 22:15 Calm 16.09 Fair CLR 17 11 68% 76.02 0.0
30 21:55 E 9 16.09 Fair CLR 19 10 56% 76.02 0.0
30 21:35 E 7 16.09 Fair CLR 17 10 64% 76.02 0.0
30 21:15 E 7 16.09 Fair CLR 17 11 68% 76 0.0
30 20:55 Calm 16.09 Fair CLR 17 12 73% 76 0.0
30 20:35 Calm 16.09 Fair CLR 17 12 73% 75.97 0.0
30 20:15 Calm 16.09 Fair CLR 17 12 73% 75.97 0.0
30 19:55 Calm 16.09 Fair CLR 21 10 50% 75.95 0.0
30 19:35 S 6 16.09 Fair CLR 23 10 44% 75.95 0.0
30 18:55 S 6 16.09 Fair CLR 23 9 41% 75.95 0.0
30 18:35 Calm 16.09 Fair CLR 23 9 41% 75.95 0.0
30 18:15 SW 7 16.09 Fair CLR 24 10 41% 25 75.95 0.0
30 17:55 SW 7 16.09 Fair CLR 24 10 41% 25 75.95 0.0
30 17:35 Vrbl 6 16.09 Fair CLR 24 10 41% 25 75.95 0.0
30 17:15 SW 7 16.09 Fair CLR 24 11 44% 25 75.95 0.0
30 16:55 Vrbl 9 16.09 Fair CLR 24 12 47% 25 75.97 0.0
30 16:35 Vrbl 6 16.09 Fair CLR 24 12 47% 25 75.97 0.0
30 16:15 W 11 14.48 Fair CLR 24 12 47% 25 75.97 0.0
30 15:55 Vrbl 7 16.09 Fair CLR 24 12 47% 25 76 0.0
30 15:35 W 15 16.09 Fair CLR 23 13 53% 76 0.0
30 15:15 W 11 16.09 Fair CLR 23 12 50% 76.02 0.0
30 14:55 Vrbl 7 G 19 16.09 Fair CLR 23 12 50% 76.02 0.0
30 14:35 W 13 G 22 16.09 Fair CLR 23 12 50% 76.05 0.0
30 14:15 NW 13 16.09 Fair CLR 23 11 47% 76.05 0.0
30 13:55 SW 13 16.09 Fair CLR 23 12 50% 76.05 0.0
30 13:35 Vrbl 11 16.09 Fair CLR 23 12 50% 76.05 0.0
30 13:15 W 9 16.09 Fair CLR 22 12 53% 76.05 0.0
30 12:55 W 9 16.09 Fair CLR 22 12 53% 76.07 0.0
30 12:35 Vrbl 11 16.09 Fair CLR 22 12 53% 76.07 0.0
30 12:15 Vrbl 9 16.09 Fair CLR 21 12 57% 76.1 0.0
30 11:55 W 11 16.09 Fair CLR 21 12 57% 76.1 0.0
30 11:35 Vrbl 9 16.09 Fair CLR 21 12 57% 76.12 0.0
30 11:15 NW 9 16.09 Fair CLR 20 12 60% 76.12 0.0
30 10:55 Vrbl 9 16.09 Fair CLR 20 12 60% 76.12 0.0 0.03
30 10:35 Vrbl 9 16.09 Fair CLR 20 11 56% 76.12 0.0
30 10:15 Vrbl 6 16.09 Fair CLR 19 11 60% 76.12 0.0
30 09:55 Vrbl 6 16.09 Fair CLR 19 10 56% 76.12 0.0
30 09:35 Calm 16.09 Fair CLR 19 10 56% 76.12 0.0
30 09:15 W 7 16.09 Fair CLR 18 10 60% 76.12 0.0
30 08:55 Calm 16.09 Fair CLR 18 10 60% 76.12 0.0
30 08:35 Calm 16.09 Fair CLR 17 11 68% 76.12 0.0
30 08:15 Calm 16.09 Fair CLR 16 10 68% 76.1 0.0
30 07:55 Calm 16.09 Fair CLR 16 10 68% 76.1 0.0
30 07:35 Calm 16.09 Fair CLR 15 10 72% 76.1 0.0
30 07:15 Calm 16.09 Fair CLR 13 9 77% 76.12 0.0
30 06:55 Calm 16.09 Fair CLR 12 9 82% 76.1 0.0
30 06:35 Calm 16.09 Fair CLR 11 9 88% 76.1 0.0
30 06:15 Calm 16.09 Fair CLR 12 8 77% 76.1 0.0
30 05:55 Calm 16.09 Fair CLR 12 8 77% 76.1 0.0
30 05:35 E 9 16.09 Fair CLR 12 9 82% 76.1 0.0
30 05:15 E 6 16.09 Fair CLR 12 9 82% 76.1 0.0
30 04:55 E 9 16.09 Fair CLR 12 9 82% 76.1 0.0
30 04:35 E 7 16.09 Fair CLR 13 9 77% 76.1 0.0
30 04:15 E 9 16.09 Fair CLR 13 9 77% 76.1 0.0
30 03:55 E 9 16.09 Fair CLR 13 9 77% 76.1 0.0
30 03:35 E 13 16.09 Fair CLR 13 9 77% 76.12 0.0
30 03:15 E 7 16.09 Fair CLR 13 9 77% 76.12 0.0
30 02:55 E 6 16.09 Fair CLR 14 9 72% 76.15 0.0
30 02:35 E 7 16.09 Fair CLR 14 9 72% 76.15 0.0
30 02:15 E 15 16.09 Fair CLR 14 9 72% 76.17 0.0
30 01:55 E 15 16.09 Fair CLR 14 9 72% 76.2 0.0
30 01:35 E 15 16.09 Fair CLR 14 10 77% 76.2 0.0
30 01:15 E 17 16.09 Fair CLR 14 10 77% 76.2 0.0
30 00:55 E 13 16.09 Fair CLR 14 10 77% 76.2 0.0
30 00:35 E 11 16.09 Fair CLR 14 10 77% 76.23 0.0
30 00:15 E 11 16.09 Fair CLR 14 10 77% 76.23 0.0
29 23:55 E 7 16.09 Fair CLR 14 10 77% 76.23 0.0
29 23:35 E 11 16.09 Fair CLR 14 10 77% 76.23 0.0
29 23:15 E 11 16.09 Fair CLR 14 11 82% 76.2 0.0
29 22:55 Calm 16.09 Fair CLR 14 10 77% 76.2 0.0
29 22:35 Calm 16.09 Fair CLR 14 11 82% 76.2 0.0
29 22:15 Calm 16.09 Fair CLR 13 11 88% 76.2 0.0
29 21:55 Calm 16.09 Fair CLR 14 11 82% 76.2 0.0
29 21:35 Calm 16.09 Fair CLR 14 11 82% 76.2 0.0
29 21:15 Calm 16.09 Fair CLR 13 11 88% 76.2 0.0
29 20:55 Calm 16.09 Fair CLR 14 12 88% 76.17 0.0
29 20:35 Calm 16.09 Fair CLR 14 11 82% 76.17 0.0
29 20:15 Calm 16.09 Fair CLR 15 11 77% 76.15 0.0
29 19:55 Calm 16.09 Fair CLR 17 10 64% 76.15 0.0
29 19:35 Calm 16.09 Fair CLR 20 9 49% 76.15 0.0
29 19:15 Calm 16.09 Fair CLR 21 9 46% 76.15 0.0
29 18:55 Calm 16.09 Fair CLR 22 8 41% 76.15 0.0
29 18:35 W 7 16.09 Fair CLR 22 8 41% 76.15 0.0
29 18:15 NW 6 11.27 Fair CLR 22 8 41% 76.15 0.0
29 17:55 Calm 16.09 Fair CLR 22 9 44% 76.17 0.0
29 17:35 NW 9 16.09 Fair CLR 22 9 44% 76.17 0.0
29 17:15 Vrbl 6 16.09 Fair CLR 22 10 47% 76.2 0.0
29 16:55 W 13 16.09 Fair CLR 22 10 47% 76.2 0.0
29 16:35 Vrbl 7 G 19 16.09 Fair CLR 22 10 47% 76.23 0.0
29 16:15 SW 7 16.09 Fair CLR 22 10 47% 76.23 0.0
29 15:55 W 17 14.48 Fair CLR 22 10 47% 76.25 0.0
29 15:35 W 13 16.09 Fair CLR 21 10 50% 76.28 0.0
29 14:55 SW 17 16.09 Fair CLR 21 10 50% 76.3 0.0
29 14:35 W 15 16.09 Fair CLR 21 11 53% 76.3 0.0
29 14:15 W 13 G 24 16.09 Fair CLR 21 11 53% 76.3 0.0
29 13:55 W 15 16.09 Fair CLR 21 10 50% 76.3 0.0
29 13:35 W 17 16.09 Fair CLR 21 10 50% 76.33 0.0
29 13:15 W 17 16.09 Fair CLR 20 10 53% 76.33 0.0
29 12:55 W 15 16.09 Fair CLR 21 10 50% 76.33 0.0
29 12:35 W 15 16.09 Fair CLR 20 10 53% 76.33 0.0
29 12:15 W 9 G 20 16.09 Fair CLR 20 10 53% 76.35 0.0
29 11:55 NW 11 16.09 Fair CLR 20 9 49% 76.35 0.0
29 11:35 Vrbl 7 G 19 16.09 Fair CLR 19 10 56% 76.38 0.0
Date Time (pdt) Wind (kph) Vis. (km) Weather Sky Cond. Air Dwpt Max. Min. Relative Humidity Wind Chill (°C) Heat Index (°C) altimeter (cm) sea level (mb) 1 hr 3 hr 6 hr
6 hour
Temperature (ºC) Pressure Precipitation (cm)